createdAt,value
2022-12-19T00:00:38.935Z,84.47
2022-12-19T00:03:45.574Z,84.36
2022-12-19T00:06:48.123Z,84.62
2022-12-19T00:09:50.863Z,85.46
2022-12-19T00:12:53.281Z,85.62
2022-12-19T00:15:55.938Z,84.98
2022-12-19T00:19:00.971Z,85.00
2022-12-19T00:22:07.069Z,85.61
2022-12-19T00:25:12.255Z,85.77
2022-12-19T00:28:15.354Z,85.75
2022-12-19T00:31:22.449Z,85.00
2022-12-19T00:34:25.001Z,85.33
2022-12-19T00:37:27.633Z,85.29
2022-12-19T00:40:32.242Z,85.01
2022-12-19T00:43:35.561Z,85.36
2022-12-19T00:46:38.936Z,85.46
2022-12-19T00:49:41.465Z,85.43
2022-12-19T00:52:44.978Z,85.89
2022-12-19T00:55:47.499Z,85.46
2022-12-19T00:58:50.540Z,85.95
2022-12-19T01:01:53.160Z,85.91
2022-12-19T01:04:55.750Z,86.61
2022-12-19T01:07:58.177Z,86.34
2022-12-19T01:11:00.823Z,86.55
2022-12-19T01:14:03.189Z,86.83
2022-12-19T01:17:05.805Z,86.99
2022-12-19T01:20:09.114Z,86.77
2022-12-19T01:23:11.914Z,87.48
2022-12-19T01:26:14.371Z,88.25
2022-12-19T01:29:17.046Z,87.89
2022-12-19T01:32:20.411Z,87.70
2022-12-19T01:35:23.730Z,86.84
2022-12-19T01:38:26.779Z,86.47
2022-12-19T01:41:29.302Z,85.92
2022-12-19T01:44:31.791Z,85.60
2022-12-19T01:47:45.221Z,85.60
2022-12-19T01:51:01.360Z,85.79
2022-12-19T01:54:10.020Z,85.87
2022-12-19T01:57:15.719Z,85.37
2022-12-19T02:00:18.957Z,85.38
2022-12-19T02:03:33.524Z,85.02
2022-12-19T02:06:37.637Z,85.29
2022-12-19T02:09:40.505Z,84.84
2022-12-19T02:12:45.666Z,84.54
2022-12-19T02:15:49.198Z,84.36
2022-12-19T02:19:13.770Z,83.71
2022-12-19T02:22:25.050Z,83.67
2022-12-19T02:25:44.178Z,83.81
2022-12-19T02:29:15.440Z,84.18
2022-12-19T02:32:47.065Z,85.10
2022-12-19T02:36:03.823Z,85.33
2022-12-19T02:39:17.550Z,84.74
2022-12-19T02:42:27.725Z,85.22
2022-12-19T02:45:37.145Z,85.24
2022-12-19T02:48:41.516Z,85.56
2022-12-19T02:51:44.495Z,85.36
2022-12-19T02:54:53.987Z,85.70
2022-12-19T02:58:31.607Z,86.29
2022-12-19T03:01:47.846Z,85.88
2022-12-19T03:05:05.376Z,85.36
2022-12-19T03:08:33.969Z,85.55
2022-12-19T03:11:40.890Z,85.36
2022-12-19T03:14:44.623Z,85.32
2022-12-19T03:17:48.752Z,85.36
2022-12-19T03:21:04.787Z,84.59
2022-12-19T03:24:10.069Z,84.64
2022-12-19T03:27:24.704Z,84.34
2022-12-19T03:30:29.682Z,84.69
2022-12-19T03:33:34.899Z,84.81
2022-12-19T03:36:42.825Z,84.98
2022-12-19T03:39:49.087Z,84.93
2022-12-19T03:43:10.402Z,84.77
2022-12-19T03:46:26.634Z,84.12
2022-12-19T03:49:29.539Z,83.84
2022-12-19T03:52:51.317Z,84.09
2022-12-19T03:56:05.117Z,83.62
2022-12-19T03:59:13.373Z,83.84
2022-12-19T04:02:18.291Z,83.44
2022-12-19T04:05:24.673Z,83.46
2022-12-19T04:08:29.074Z,83.66
2022-12-19T04:11:38.799Z,83.43
2022-12-19T04:14:41.961Z,83.45
2022-12-19T04:17:51.755Z,83.35
2022-12-19T04:21:28.011Z,82.39
2022-12-19T04:24:34.989Z,82.13
2022-12-19T04:27:40.741Z,81.99
2022-12-19T04:30:45.180Z,81.88
2022-12-19T04:33:47.665Z,81.77
2022-12-19T04:36:51.320Z,81.84
2022-12-19T04:39:53.937Z,81.90
2022-12-19T04:42:56.600Z,81.74
2022-12-19T04:45:59.138Z,81.93
2022-12-19T04:49:01.948Z,82.68
2022-12-19T04:52:04.728Z,83.17
2022-12-19T04:55:07.917Z,83.77
2022-12-19T04:58:10.393Z,83.31
2022-12-19T05:01:14.380Z,83.19
2022-12-19T05:04:17.198Z,82.67
2022-12-19T05:07:19.688Z,82.79
2022-12-19T05:10:22.206Z,82.40
2022-12-19T05:13:24.688Z,83.06
2022-12-19T05:16:27.238Z,83.14
2022-12-19T05:19:30.548Z,83.39
2022-12-19T05:22:33.455Z,83.68
2022-12-19T05:25:35.974Z,83.18
2022-12-19T05:28:39.010Z,83.26
2022-12-19T05:31:41.922Z,83.63
2022-12-19T05:34:44.435Z,83.23
2022-12-19T05:37:46.882Z,83.03
2022-12-19T05:40:50.048Z,82.85
2022-12-19T05:43:55.054Z,83.09
2022-12-19T05:46:57.719Z,83.30
2022-12-19T05:50:00.322Z,82.95
2022-12-19T05:53:02.764Z,82.40
2022-12-19T05:56:17.514Z,83.64
2022-12-19T05:59:20.221Z,83.62
2022-12-19T06:02:23.166Z,83.33
2022-12-19T06:05:25.826Z,83.03
2022-12-19T06:08:28.311Z,83.45
2022-12-19T06:11:31.075Z,83.83
2022-12-19T06:14:33.661Z,84.18
2022-12-19T06:17:36.076Z,83.57
2022-12-19T06:20:39.229Z,83.54
2022-12-19T06:23:43.660Z,83.40
2022-12-19T06:26:46.166Z,83.07
2022-12-19T06:29:48.718Z,82.90
2022-12-19T06:32:51.453Z,82.38
2022-12-19T06:36:00.009Z,82.11
2022-12-19T06:39:02.765Z,81.74
2022-12-19T06:42:23.765Z,81.67
2022-12-19T06:45:26.292Z,81.53
2022-12-19T06:48:29.356Z,81.66
2022-12-19T06:51:33.191Z,81.38
2022-12-19T06:54:35.678Z,81.08
2022-12-19T06:57:45.352Z,80.31
2022-12-19T07:00:48.638Z,80.82
2022-12-19T07:03:51.922Z,80.51
2022-12-19T07:06:54.761Z,79.99
2022-12-19T07:09:57.565Z,79.46
2022-12-19T07:13:00.522Z,78.90
2022-12-19T07:16:05.328Z,78.96
2022-12-19T07:19:09.346Z,78.40
2022-12-19T07:22:14.071Z,78.80
2022-12-19T07:25:17.853Z,77.54
2022-12-19T07:28:20.392Z,77.03
2022-12-19T07:31:22.859Z,74.87
2022-12-19T07:34:26.286Z,73.87
2022-12-19T07:37:28.835Z,74.07
2022-12-19T07:40:33.785Z,73.53
2022-12-19T07:43:36.338Z,73.54
2022-12-19T07:46:39.911Z,73.45
2022-12-19T07:49:42.429Z,73.38
2022-12-19T07:52:45.414Z,72.97
2022-12-19T07:55:51.700Z,71.95
2022-12-19T07:58:54.373Z,72.31
2022-12-19T08:01:57.153Z,71.52
2022-12-19T08:05:03.043Z,71.06
2022-12-19T08:08:05.672Z,70.93
2022-12-19T08:11:22.379Z,69.73
2022-12-19T08:14:25.068Z,70.22
2022-12-19T08:17:27.565Z,69.33
2022-12-19T08:20:30.429Z,69.23
2022-12-19T08:23:33.125Z,68.19
2022-12-19T08:26:40.469Z,67.19
2022-12-19T08:29:45.773Z,66.18
2022-12-19T08:32:48.396Z,64.29
2022-12-19T08:35:51.499Z,64.14
2022-12-19T08:38:54.290Z,65.04
2022-12-19T08:41:56.811Z,66.33
2022-12-19T08:44:59.284Z,66.71
2022-12-19T08:48:01.783Z,67.67
2022-12-19T08:51:07.460Z,68.47
2022-12-19T08:54:11.896Z,68.09
2022-12-19T08:57:14.710Z,68.81
2022-12-19T09:00:18.086Z,68.28
2022-12-19T09:03:22.722Z,68.28
2022-12-19T09:06:27.342Z,68.37
2022-12-19T09:09:30.267Z,68.39
2022-12-19T09:12:32.813Z,68.36
2022-12-19T09:15:35.277Z,67.48
2022-12-19T09:18:45.169Z,67.25
2022-12-19T09:21:50.605Z,66.81
2022-12-19T09:24:53.202Z,65.57
2022-12-19T09:28:26.254Z,64.02
2022-12-19T09:31:21.493Z,63.65
2022-12-19T09:34:36.809Z,61.59
2022-12-19T09:37:40.799Z,60.87
2022-12-19T09:41:26.724Z,60.30
2022-12-19T09:44:47.871Z,60.47
2022-12-19T09:47:55.475Z,59.63
2022-12-19T09:51:13.886Z,56.28
2022-12-19T09:54:37.057Z,55.34
2022-12-19T09:58:13.550Z,53.93
2022-12-19T10:01:22.410Z,50.66
2022-12-19T10:04:29.763Z,50.10
2022-12-19T10:07:53.326Z,49.63
2022-12-19T10:12:43.953Z,50.02
2022-12-19T10:15:03.120Z,47.84
2022-12-19T10:18:34.301Z,47.24
2022-12-19T10:25:12.225Z,44.53
2022-12-19T10:28:38.036Z,42.59
2022-12-19T10:32:04.522Z,43.60
2022-12-19T10:35:18.941Z,43.41
2022-12-19T10:38:28.659Z,42.69
2022-12-19T10:41:32.601Z,43.23
2022-12-19T10:44:40.125Z,46.19
2022-12-19T10:47:42.758Z,49.85
2022-12-19T10:50:45.554Z,51.66
2022-12-19T10:53:55.270Z,53.69
2022-12-19T10:57:22.998Z,54.51
2022-12-19T11:00:26.358Z,51.10
2022-12-19T11:03:29.029Z,50.88
2022-12-19T11:06:37.749Z,50.38
2022-12-19T11:09:42.614Z,50.92
2022-12-19T11:18:14.718Z,48.51
2022-12-19T11:21:15.059Z,47.82
2022-12-19T11:29:25.515Z,50.39
2022-12-19T11:30:09.514Z,52.15
2022-12-19T11:30:43.940Z,52.09
2022-12-19T11:33:33.227Z,49.39
2022-12-19T11:36:55.945Z,49.51
2022-12-19T11:40:03.596Z,46.75
2022-12-19T11:46:51.548Z,52.22
2022-12-19T11:50:02.982Z,50.01
2022-12-19T11:53:19.203Z,50.13
2022-12-19T11:56:24.780Z,52.60
2022-12-19T11:59:38.568Z,54.56
2022-12-19T12:02:43.964Z,55.11
2022-12-19T12:05:48.026Z,51.00
2022-12-19T12:12:15.344Z,50.80
2022-12-19T12:18:41.636Z,55.34
2022-12-19T12:31:01.056Z,56.52
2022-12-19T12:31:22.672Z,51.48
2022-12-19T12:31:23.268Z,47.63
2022-12-19T12:32:03.187Z,42.93
2022-12-19T12:37:03.453Z,48.26
2022-12-19T12:39:02.521Z,45.03
2022-12-19T12:42:26.998Z,48.33
2022-12-19T12:45:41.382Z,49.79
2022-12-19T12:48:52.093Z,52.92
2022-12-19T12:51:55.361Z,55.42
2022-12-19T12:54:58.551Z,56.89
2022-12-19T12:58:01.236Z,58.05
2022-12-19T13:01:11.698Z,58.19
2022-12-19T13:04:15.775Z,58.52
2022-12-19T13:07:50.993Z,58.39
2022-12-19T13:10:56.541Z,59.75
2022-12-19T13:13:59.330Z,60.32
2022-12-19T13:17:21.787Z,60.65
2022-12-19T13:20:24.868Z,60.13
2022-12-19T13:23:30.695Z,60.87
2022-12-19T13:26:50.123Z,61.17
2022-12-19T13:30:03.664Z,61.50
2022-12-19T13:33:08.836Z,61.33
2022-12-19T13:39:54.780Z,61.92
2022-12-19T13:40:20.996Z,62.25
2022-12-19T13:43:49.933Z,63.41
2022-12-19T13:46:56.433Z,63.64
2022-12-19T13:50:04.309Z,63.90
2022-12-19T13:53:21.947Z,63.89
2022-12-19T13:56:24.416Z,63.78
2022-12-19T13:59:33.800Z,63.64
2022-12-19T14:02:45.250Z,65.45
2022-12-19T14:06:17.453Z,64.81
2022-12-19T14:11:26.089Z,64.78
2022-12-19T14:13:57.326Z,64.67
2022-12-19T14:16:43.967Z,65.08
2022-12-19T14:19:50.158Z,65.83
2022-12-19T14:23:00.296Z,67.20
2022-12-19T14:28:26.135Z,66.91
2022-12-19T14:30:29.329Z,67.53
2022-12-19T14:33:44.255Z,68.69
2022-12-19T14:36:31.470Z,68.92
2022-12-19T14:39:36.332Z,69.43
2022-12-19T14:43:59.309Z,69.33
2022-12-19T14:51:42.914Z,70.38
2022-12-19T14:54:13.006Z,70.43
2022-12-19T14:54:46.758Z,70.66
2022-12-19T14:57:01.047Z,71.17
2022-12-19T15:01:07.552Z,71.78
2022-12-19T15:04:52.466Z,72.14
2022-12-19T15:07:17.752Z,71.84
2022-12-19T15:11:03.853Z,72.49
2022-12-19T15:14:54.203Z,72.88
2022-12-19T15:17:23.883Z,72.66
2022-12-19T15:20:26.571Z,72.85
2022-12-19T15:23:29.874Z,72.32
2022-12-19T15:26:46.095Z,72.53
2022-12-19T15:29:49.564Z,72.82
2022-12-19T15:32:52.134Z,73.13
2022-12-19T15:35:55.934Z,73.46
2022-12-19T15:38:58.376Z,73.88
2022-12-19T15:42:01.955Z,74.00
2022-12-19T15:45:05.035Z,74.17
2022-12-19T15:48:18.129Z,74.65
2022-12-19T15:51:20.530Z,74.50
2022-12-19T15:57:51.235Z,75.08
2022-12-19T16:01:00.444Z,75.47
2022-12-19T16:04:03.609Z,76.03
2022-12-19T16:07:14.823Z,75.64
2022-12-19T16:10:17.830Z,75.37
2022-12-19T16:13:24.379Z,75.62
2022-12-19T16:16:27.158Z,75.78
2022-12-19T16:19:31.263Z,75.85
2022-12-19T16:22:33.840Z,75.94
2022-12-19T16:25:40.993Z,75.40
2022-12-19T16:28:43.626Z,75.57
2022-12-19T16:31:46.494Z,75.17
2022-12-19T16:34:48.981Z,74.40
2022-12-19T16:37:51.501Z,74.01
2022-12-19T16:40:54.051Z,73.60
2022-12-19T16:43:56.543Z,73.28
2022-12-19T16:46:59.270Z,73.10
2022-12-19T16:50:07.627Z,72.31
2022-12-19T16:53:10.160Z,72.68
2022-12-19T16:56:29.880Z,72.31
2022-12-19T16:59:41.638Z,72.34
2022-12-19T17:02:58.724Z,72.52
2022-12-19T17:06:01.528Z,71.68
2022-12-19T17:09:04.044Z,71.97
2022-12-19T17:12:06.822Z,71.84
2022-12-19T17:15:31.584Z,71.25
2022-12-19T17:18:37.209Z,71.64
2022-12-19T17:21:39.608Z,72.10
2022-12-19T17:24:43.558Z,71.39
2022-12-19T17:27:46.822Z,71.61
2022-12-19T17:30:52.495Z,71.74
2022-12-19T17:33:57.800Z,70.82
2022-12-19T17:37:03.246Z,71.15
2022-12-19T17:40:16.720Z,71.20
2022-12-19T17:43:19.142Z,71.25
2022-12-19T17:46:25.397Z,71.57
2022-12-19T17:49:31.069Z,71.10
2022-12-19T17:52:36.241Z,71.44
2022-12-19T17:55:38.631Z,70.79
2022-12-19T17:58:41.154Z,70.78
2022-12-19T18:01:47.435Z,71.30
2022-12-19T18:04:51.223Z,71.61
2022-12-19T18:07:54.533Z,70.87
2022-12-19T18:11:03.927Z,70.61
2022-12-19T18:14:06.349Z,71.43
2022-12-19T18:17:12.706Z,70.95
2022-12-19T18:20:19.284Z,70.57
2022-12-19T18:23:23.652Z,70.87
2022-12-19T18:26:26.566Z,70.92
2022-12-19T18:29:29.091Z,70.71
2022-12-19T18:32:34.165Z,70.53
2022-12-19T18:35:40.676Z,70.83
2022-12-19T18:38:43.321Z,70.35
2022-12-19T18:41:48.210Z,70.83
2022-12-19T18:44:50.688Z,70.66
2022-12-19T18:47:57.530Z,70.21
2022-12-19T18:51:02.168Z,70.34
2022-12-19T18:54:12.817Z,70.39
2022-12-19T18:57:15.499Z,70.50
2022-12-19T19:00:20.549Z,70.77
2022-12-19T19:03:29.171Z,71.09
2022-12-19T19:06:37.609Z,70.79
2022-12-19T19:09:41.471Z,70.70
2022-12-19T19:13:09.849Z,71.01
2022-12-19T19:16:19.016Z,71.28
2022-12-19T19:19:22.957Z,71.47
2022-12-19T19:22:25.882Z,71.17
2022-12-19T19:25:28.598Z,71.59
2022-12-19T19:28:31.346Z,71.74
2022-12-19T19:31:38.670Z,71.82
2022-12-19T19:34:41.666Z,71.10
2022-12-19T19:37:45.265Z,71.48
2022-12-19T19:40:49.235Z,71.40
2022-12-19T19:43:51.821Z,71.58
2022-12-19T19:46:54.357Z,71.39
2022-12-19T19:49:57.244Z,71.41
2022-12-19T19:53:00.227Z,71.34
2022-12-19T19:56:04.002Z,72.07
2022-12-19T19:59:06.643Z,72.07
2022-12-19T20:02:11.169Z,72.22
2022-12-19T20:05:13.961Z,71.81
2022-12-19T20:08:16.680Z,72.22
2022-12-19T20:11:20.526Z,72.13
2022-12-19T20:14:23.770Z,72.21
2022-12-19T20:17:26.673Z,72.02
2022-12-19T20:20:29.440Z,72.15
2022-12-19T20:23:32.084Z,71.55
2022-12-19T20:26:35.324Z,71.58
2022-12-19T20:29:37.955Z,71.74
2022-12-19T20:32:40.571Z,72.21
2022-12-19T20:35:43.660Z,71.67
2022-12-19T20:38:47.195Z,71.90
2022-12-19T20:41:51.512Z,72.01
2022-12-19T20:44:54.247Z,71.72
2022-12-19T20:47:57.559Z,71.58
2022-12-19T20:51:01.561Z,72.30
2022-12-19T20:54:05.202Z,72.38
2022-12-19T20:57:07.786Z,72.54
2022-12-19T21:00:11.529Z,72.11
2022-12-19T21:03:27.785Z,72.87
2022-12-19T21:06:31.433Z,73.05
2022-12-19T21:09:33.952Z,72.86
2022-12-19T21:12:38.000Z,73.15
2022-12-19T21:15:42.547Z,73.45
2022-12-19T21:18:47.370Z,73.49
2022-12-19T21:21:50.188Z,72.96
2022-12-19T21:24:52.604Z,73.34
2022-12-19T21:27:55.027Z,72.92
2022-12-19T21:31:06.864Z,72.84
2022-12-19T21:34:10.118Z,73.33
2022-12-19T21:37:12.502Z,73.06
2022-12-19T21:40:16.083Z,73.82
2022-12-19T21:43:18.715Z,73.24
2022-12-19T21:46:23.965Z,73.15
2022-12-19T21:49:26.613Z,73.46
2022-12-19T21:52:29.090Z,73.60
2022-12-19T21:55:31.528Z,73.38
2022-12-19T21:58:34.462Z,73.59
2022-12-19T22:01:37.032Z,73.91
2022-12-19T22:04:39.522Z,73.50
2022-12-19T22:07:41.968Z,74.12
2022-12-19T22:10:44.506Z,74.06
2022-12-19T22:13:48.702Z,73.59
2022-12-19T22:16:51.593Z,73.82
2022-12-19T22:19:55.378Z,74.32
2022-12-19T22:22:58.018Z,73.95
2022-12-19T22:26:07.261Z,74.35
2022-12-19T22:29:13.814Z,74.50
2022-12-19T22:32:17.928Z,74.58
2022-12-19T22:35:20.518Z,74.94
2022-12-19T22:38:23.007Z,75.10
2022-12-19T22:41:26.106Z,75.04
2022-12-19T22:44:28.583Z,75.22
2022-12-19T22:47:31.049Z,74.94
2022-12-19T22:50:33.719Z,74.78
2022-12-19T22:53:37.745Z,74.62
2022-12-19T22:56:40.458Z,75.22
2022-12-19T22:59:43.072Z,75.17
2022-12-19T23:02:45.649Z,75.06
2022-12-19T23:05:51.843Z,75.08
2022-12-19T23:08:54.944Z,75.39
2022-12-19T23:11:57.394Z,74.97
2022-12-19T23:14:59.864Z,74.70
2022-12-19T23:18:02.566Z,74.99
2022-12-19T23:21:07.675Z,75.11
2022-12-19T23:24:12.329Z,74.81
2022-12-19T23:27:14.959Z,74.46
2022-12-19T23:30:18.566Z,75.07
2022-12-19T23:33:21.311Z,75.09
2022-12-19T23:37:00.427Z,74.96
2022-12-19T23:39:47.055Z,75.42
2022-12-19T23:42:50.010Z,75.19
2022-12-19T23:45:52.898Z,74.69
2022-12-19T23:48:55.803Z,75.47
2022-12-19T23:52:00.009Z,75.25
2022-12-19T23:55:02.434Z,74.70
2022-12-19T23:58:09.621Z,75.03
